La Paz, Mexico

11:30 AM MDT on October 01, 2016 (GMT -0600)
Gen Manuel Marquez De Leon | | Change Station

Elev 69 ft 24.07 °N, 110.36 °W | Updated 45 minutes ago

Mostly Cloudy
Mostly Cloudy
90 °F
Feels Like 92 °F
N
0
Wind Variable Wind from North

Today
High -- | Low -- °F
--% Chance of Precip.
Yesterday
High -- | Low -- °F
Precip. -- in
Pressure 29.97 in
Visibility 10.0 miles
Clouds Few 4000 ft
Scattered Clouds 10000 ft
Mostly Cloudy 22000 ft
Heat Index 92 °F
Dew Point 66 °F
Humidity 46%
Rainfall 0.00 in
Snow Depth Not available.
7:13 AM 7:07 PM
New Moon, 1% visible
METAR MMLP 011645Z 00000KT 10SM FEW040 SCT100 BKN220 32/19 A2997 RMK 8/138 HZY
Pressure 29.97 in
Visibility 10.0 miles
Clouds Few 4000 ft
Scattered Clouds 10000 ft
Mostly Cloudy 22000 ft
Heat Index 92 °F
Dew Point 66 °F
Humidity 46%
Rainfall 0.00 in
Snow Depth Not available.
7:13 AM 7:07 PM
New Moon, 1% visible
METAR MMLP 011645Z 00000KT 10SM FEW040 SCT100 BKN220 32/19 A2997 RMK 8/138 HZY

10-Day Weather Forecast

No radar image for this location.
×

Almanac

Astronomy

Oct. 01, 2016 Rise Set
Actual Time
Civil Twilight
Nautical Twilight
Astronomical Twilight
Moon
Length of Visible Light
Length of Day
Tomorrow will be .
, % of the Moon is Illuminated

Today's Extremes

Country Highs Country Lows

Community

WunderPhotos

Upload Photos

1,942,963 photos uploaded!

WunderBlog® & News

Nearby

Air Quality

  Air Quality AQ Index Pollutant
Not available.

Snow Depth

Station Depth Elevation

Earthquake Activity

City Distance Mag. Time & Date
Minimum magnitude displayed is 2.5.

Coastal Water Temperatures

Place Temperature

Stations

Nearby Weather Stations

Station Location Temp. Windchill Dew Point Humidity Wind Precip. Elev Updated Type